createdAt,value
2022-11-28T00:02:21.217Z,92460.81
2022-11-28T00:07:23.370Z,92468.69
2022-11-28T00:12:26.299Z,92462.09
2022-11-28T00:17:28.181Z,92465.13
2022-11-28T00:22:30.065Z,92463.09
2022-11-28T00:27:34.596Z,92467.88
2022-11-28T00:32:37.032Z,92451.31
2022-11-28T00:37:38.952Z,92463.72
2022-11-28T00:42:40.855Z,92454.06
2022-11-28T00:47:42.787Z,92447.56
2022-11-28T00:52:44.750Z,92455.25
2022-11-28T00:57:46.768Z,92460.00
2022-11-28T01:02:48.864Z,92456.28
2022-11-28T01:07:51.411Z,92471.28
2022-11-28T01:12:53.295Z,92470.88
2022-11-28T01:17:55.211Z,92468.06
2022-11-28T01:22:57.127Z,92461.31
2022-11-28T01:27:59.035Z,92447.88
2022-11-28T01:33:00.937Z,92464.75
2022-11-28T01:38:02.830Z,92444.94
2022-11-28T01:43:04.730Z,92422.38
2022-11-28T01:48:09.505Z,92429.56
2022-11-28T01:53:12.516Z,92428.41
2022-11-28T01:58:14.962Z,92402.63
2022-11-28T02:03:29.916Z,92395.72
2022-11-28T02:08:34.983Z,92372.00
2022-11-28T02:13:55.484Z,92373.84
2022-11-28T02:19:27.939Z,92375.41
2022-11-28T02:24:45.083Z,92366.47
2022-11-28T02:30:12.876Z,92345.53
2022-11-28T02:35:14.774Z,92344.63
2022-11-28T02:40:25.195Z,92324.53
2022-11-28T02:45:58.835Z,92338.56
2022-11-28T02:51:16.960Z,92329.00
2022-11-28T02:56:19.053Z,92340.91
2022-11-28T03:01:34.397Z,92328.56
2022-11-28T03:06:58.406Z,92263.91
2022-11-28T03:12:14.410Z,92262.78
2022-11-28T03:17:52.276Z,92291.00
2022-11-28T03:23:30.460Z,92243.44
2022-11-28T03:28:40.682Z,92270.94
2022-11-28T03:33:51.875Z,92259.88
2022-11-28T03:39:08.510Z,92267.59
2022-11-28T03:44:20.433Z,92267.72
2022-11-28T03:49:46.222Z,92269.59
2022-11-28T03:54:57.106Z,92270.56
2022-11-28T04:00:04.164Z,92288.16
2022-11-28T04:05:24.953Z,92296.97
2022-11-28T04:10:51.056Z,92293.72
2022-11-28T04:16:37.288Z,92299.44
2022-11-28T04:22:04.087Z,92288.97
2022-11-28T04:27:10.649Z,92278.72
2022-11-28T04:32:15.264Z,92267.34
2022-11-28T04:37:19.852Z,92275.97
2022-11-28T04:42:26.463Z,92266.41
2022-11-28T04:47:29.243Z,92258.53
2022-11-28T04:52:41.757Z,92258.94
2022-11-28T04:57:51.695Z,92246.78
2022-11-28T05:02:56.908Z,92262.06
2022-11-28T05:08:02.145Z,92239.28
2022-11-28T05:13:04.575Z,92248.88
2022-11-28T05:18:06.984Z,92254.09
2022-11-28T05:23:09.318Z,92247.09
2022-11-28T05:28:11.314Z,92235.34
2022-11-28T05:33:17.644Z,92265.75
2022-11-28T05:38:19.872Z,92235.53
2022-11-28T05:43:21.945Z,92209.78
2022-11-28T05:48:24.444Z,92265.22
2022-11-28T05:53:26.652Z,92231.19
2022-11-28T05:58:28.620Z,92246.94
2022-11-28T06:03:30.570Z,92252.03
2022-11-28T06:08:32.540Z,92251.69
2022-11-28T06:13:34.530Z,92251.22
2022-11-28T06:18:36.998Z,92259.81
2022-11-28T06:23:40.800Z,92247.41
2022-11-28T06:28:43.473Z,92259.75
2022-11-28T06:33:46.004Z,92237.31
2022-11-28T06:38:48.807Z,92262.19
2022-11-28T06:43:50.964Z,92257.94
2022-11-28T06:48:53.647Z,92258.16
2022-11-28T06:53:55.757Z,92250.03
2022-11-28T06:58:59.669Z,92263.91
2022-11-28T07:04:02.176Z,92248.72
2022-11-28T07:09:04.506Z,92233.91
2022-11-28T07:14:06.531Z,92244.66
2022-11-28T07:19:08.561Z,92231.47
2022-11-28T07:24:10.454Z,92229.31
2022-11-28T07:29:17.469Z,92237.34
2022-11-28T07:34:19.398Z,92248.09
2022-11-28T07:39:21.419Z,92237.59
2022-11-28T07:44:23.307Z,92216.22
2022-11-28T07:49:25.187Z,92259.72
2022-11-28T07:54:27.120Z,92254.69
2022-11-28T07:59:29.046Z,92208.75
2022-11-28T08:04:31.074Z,92244.97
2022-11-28T08:09:33.323Z,92213.84
2022-11-28T08:14:35.279Z,92211.72
2022-11-28T08:19:37.417Z,92218.25
2022-11-28T08:24:39.365Z,92225.72
2022-11-28T08:29:41.562Z,92220.38
2022-11-28T08:34:43.654Z,92216.78
2022-11-28T08:39:45.675Z,92212.28
2022-11-28T08:44:47.664Z,92208.81
2022-11-28T08:49:49.654Z,92220.28
2022-11-28T08:54:51.868Z,92209.97
2022-11-28T08:59:53.786Z,92205.75
2022-11-28T09:04:55.709Z,92196.03
2022-11-28T09:09:57.690Z,92202.00
2022-11-28T09:14:59.613Z,92190.00
2022-11-28T09:20:01.702Z,92196.22
2022-11-28T09:25:04.076Z,92194.53
2022-11-28T09:30:08.294Z,92204.50
2022-11-28T09:35:10.369Z,92169.50
2022-11-28T09:40:17.542Z,92187.63
2022-11-28T09:45:23.339Z,92183.66
2022-11-28T09:50:30.651Z,92193.75
2022-11-28T09:56:02.224Z,92173.97
2022-11-28T10:01:22.908Z,92189.00
2022-11-28T10:06:45.280Z,92192.06
2022-11-28T10:12:03.983Z,92194.09
2022-11-28T10:17:21.116Z,92194.72
2022-11-28T10:22:44.637Z,92178.50
2022-11-28T10:27:47.962Z,92182.41
2022-11-28T10:33:12.302Z,92172.22
2022-11-28T10:38:16.811Z,92184.94
2022-11-28T10:43:54.284Z,92155.69
2022-11-28T10:49:01.394Z,92169.50
2022-11-28T10:54:39.338Z,92173.97
2022-11-28T11:00:03.339Z,92195.81
2022-11-28T11:05:08.002Z,92162.47
2022-11-28T11:10:17.305Z,92183.69
2022-11-28T11:15:30.090Z,92188.84
2022-11-28T11:20:39.647Z,92196.06
2022-11-28T11:25:58.319Z,92188.59
2022-11-28T11:31:07.083Z,92181.72
2022-11-28T11:36:33.263Z,92159.34
2022-11-28T11:41:35.279Z,92156.38
2022-11-28T11:47:03.553Z,92174.06
2022-11-28T11:52:21.107Z,92157.16
2022-11-28T11:57:33.954Z,92193.81
2022-11-28T12:02:38.562Z,92189.19
2022-11-28T12:07:55.253Z,92194.75
2022-11-28T12:12:57.403Z,92196.41
2022-11-28T12:18:07.042Z,92203.22
2022-11-28T12:23:46.562Z,92215.22
2022-11-28T12:29:22.711Z,92215.41
2022-11-28T12:34:30.570Z,92209.63
2022-11-28T12:39:53.877Z,92211.44
2022-11-28T12:45:15.996Z,92189.00
2022-11-28T12:50:36.887Z,92208.66
2022-11-28T12:56:07.888Z,92200.81
2022-11-28T13:01:39.319Z,92191.72
2022-11-28T13:06:48.790Z,92201.25
2022-11-28T13:12:11.994Z,92206.19
2022-11-28T13:17:42.828Z,92209.50
2022-11-28T13:22:53.485Z,92193.72
2022-11-28T13:28:04.236Z,92211.53
2022-11-28T13:33:33.201Z,92219.94
2022-11-28T13:39:11.364Z,92215.75
2022-11-28T13:44:19.485Z,92218.78
2022-11-28T13:49:27.499Z,92198.81
2022-11-28T13:54:32.512Z,92219.81
2022-11-28T13:59:35.766Z,92205.00
2022-11-28T14:04:44.455Z,92209.97
2022-11-28T14:10:16.905Z,92222.13
2022-11-28T14:15:32.143Z,92224.38
2022-11-28T14:20:51.764Z,92180.56
2022-11-28T14:25:54.997Z,92222.94
2022-11-28T14:31:26.183Z,92209.88
2022-11-28T14:36:31.534Z,92208.38
2022-11-28T14:42:05.348Z,92216.22
2022-11-28T14:47:16.280Z,92226.47
2022-11-28T14:52:40.910Z,92218.69
2022-11-28T14:57:44.545Z,92224.63
2022-11-28T15:02:52.760Z,92211.28
2022-11-28T15:08:02.802Z,92232.88
2022-11-28T15:13:35.078Z,92234.75
2022-11-28T15:18:41.896Z,92243.13
2022-11-28T15:23:44.693Z,92244.22
2022-11-28T15:28:47.046Z,92227.84
2022-11-28T15:33:50.521Z,92260.69
2022-11-28T15:38:54.603Z,92260.59
2022-11-28T15:43:57.706Z,92251.66
2022-11-28T15:49:01.564Z,92270.66
2022-11-28T15:54:30.134Z,92272.16
2022-11-28T15:59:32.623Z,92255.66
2022-11-28T16:04:34.923Z,92282.91
2022-11-28T16:09:38.597Z,92269.06
2022-11-28T16:14:44.934Z,92283.53
2022-11-28T16:19:51.407Z,92275.09
2022-11-28T16:25:00.129Z,92289.34
2022-11-28T16:30:26.621Z,92273.13
2022-11-28T16:35:39.026Z,92282.03
2022-11-28T16:40:41.973Z,92280.47
2022-11-28T16:45:44.049Z,92271.03
2022-11-28T16:51:15.422Z,92290.97
2022-11-28T16:56:29.344Z,92287.75
2022-11-28T17:01:31.550Z,92270.41
2022-11-28T17:06:37.746Z,92277.38
2022-11-28T17:11:47.456Z,92284.44
2022-11-28T17:16:49.490Z,92268.56
2022-11-28T17:21:54.839Z,92281.97
2022-11-28T17:26:56.838Z,92269.97
2022-11-28T17:31:59.505Z,92254.38
2022-11-28T17:37:02.961Z,92267.16
2022-11-28T17:42:06.112Z,92222.75
2022-11-28T17:47:08.117Z,92245.47
2022-11-28T17:52:10.085Z,92208.88
2022-11-28T17:57:12.146Z,92237.81
2022-11-28T18:02:14.289Z,92251.00
2022-11-28T18:07:16.308Z,92271.31
2022-11-28T18:12:18.271Z,92260.25
2022-11-28T18:17:20.325Z,92262.00
2022-11-28T18:22:22.800Z,92255.03
2022-11-28T18:27:24.917Z,92240.69
2022-11-28T18:32:26.928Z,92264.81
2022-11-28T18:37:30.268Z,92255.50
2022-11-28T18:42:32.564Z,92239.06
2022-11-28T18:47:35.781Z,92255.59
2022-11-28T18:52:38.391Z,92249.63
2022-11-28T18:57:41.426Z,92254.25
2022-11-28T19:02:43.447Z,92245.75
2022-11-28T19:07:45.680Z,92238.47
2022-11-28T19:12:47.859Z,92243.09
2022-11-28T19:17:49.815Z,92241.69
2022-11-28T19:22:52.524Z,92225.72
2022-11-28T19:27:54.793Z,92259.97
2022-11-28T19:32:58.492Z,92245.50
2022-11-28T19:38:00.555Z,92262.00
2022-11-28T19:43:04.860Z,92222.59
2022-11-28T19:48:07.672Z,92258.53
2022-11-28T19:53:09.700Z,92248.25
2022-11-28T19:58:12.370Z,92239.25
2022-11-28T20:03:15.736Z,92243.31
2022-11-28T20:08:17.772Z,92237.91
2022-11-28T20:13:20.034Z,92247.28
2022-11-28T20:18:22.233Z,92234.34
2022-11-28T20:23:24.246Z,92211.41
2022-11-28T20:28:26.532Z,92255.75
2022-11-28T20:33:29.540Z,92246.38
2022-11-28T20:38:31.612Z,92252.41
2022-11-28T20:43:36.699Z,92260.78
2022-11-28T20:48:39.772Z,92274.19
2022-11-28T20:53:41.792Z,92259.00
2022-11-28T20:58:44.356Z,92271.06
2022-11-28T21:03:47.071Z,92269.69
2022-11-28T21:08:49.093Z,92267.72
2022-11-28T21:13:51.040Z,92255.34
2022-11-28T21:18:53.401Z,92247.28
2022-11-28T21:24:04.283Z,92264.25
2022-11-28T21:29:07.065Z,92252.94
2022-11-28T21:34:14.322Z,92260.34
2022-11-28T21:39:20.040Z,92265.34
2022-11-28T21:44:22.286Z,92266.09
2022-11-28T21:49:24.542Z,92268.97
2022-11-28T21:54:28.680Z,92275.41
2022-11-28T21:59:31.875Z,92265.59
2022-11-28T22:04:34.842Z,92271.13
2022-11-28T22:09:36.974Z,92270.34
2022-11-28T22:14:39.159Z,92269.84
2022-11-28T22:19:41.604Z,92258.09
2022-11-28T22:24:44.082Z,92260.56
2022-11-28T22:29:46.451Z,92231.56
2022-11-28T22:34:48.515Z,92260.69
2022-11-28T22:39:51.775Z,92252.69
2022-11-28T22:44:54.362Z,92229.94
2022-11-28T22:49:56.805Z,92246.75
2022-11-28T22:54:58.799Z,92256.28
2022-11-28T23:00:00.768Z,92252.47
2022-11-28T23:05:03.228Z,92249.00
2022-11-28T23:10:05.742Z,92236.78
2022-11-28T23:15:10.216Z,92236.81
2022-11-28T23:20:12.733Z,92251.19
2022-11-28T23:25:15.439Z,92245.19
2022-11-28T23:30:18.298Z,92227.06
2022-11-28T23:35:20.242Z,92246.09
2022-11-28T23:40:22.379Z,92250.28
2022-11-28T23:45:24.460Z,92237.91
2022-11-28T23:50:27.238Z,92230.41
2022-11-28T23:55:29.179Z,92234.09
